Time,TemperatureF,DewpointF,PressureIn,WindDirection,WindDirectionDegrees,WindSpeedMPH,WindSpeedGustMPH,Humidity,HourlyPrecipIn,Conditions,Clouds,dailyrainin,SolarRadiationWatts/m^2,SoftwareType,DateUTC
2013-08-23 00:27:00,48.7,41.1,29.66,ESE,103,0.0,0.0,75,0.00,CLR,,0.00,0.0,WeatherDisplay:10.37,2013-08-22 12:27:00,
2013-08-23 00:33:00,48.7,40.8,29.66,ESE,103,0.0,0.0,74,0.00,CLR,,0.00,0.0,WeatherDisplay:10.37,2013-08-22 12:33:00,
2013-08-23 00:38:00,48.9,40.6,29.67,ESE,103,0.0,0.0,73,0.00,CLR,,0.00,0.0,WeatherDisplay:10.37,2013-08-22 12:38:00,
2013-08-23 00:43:00,49.0,41.1,29.66,ESE,103,0.0,0.0,74,0.00,CLR,,0.00,0.0,WeatherDisplay:10.37,2013-08-22 12:43:00,
2013-08-23 00:48:00,48.6,41.4,29.66,ESE,103,0.0,0.0,76,0.00,CLR,,0.00,0.0,WeatherDisplay:10.37,2013-08-22 12:48:00,
2013-08-23 00:53:00,48.2,41.3,29.66,ESE,103,0.0,0.0,77,0.00,CLR,,0.00,0.0,WeatherDisplay:10.37,2013-08-22 12:53:00,
2013-08-23 00:58:00,48.0,41.5,29.66,ESE,103,0.0,0.0,78,0.00,CLR,,0.00,0.0,WeatherDisplay:10.37,2013-08-22 12:58:00,
2013-08-23 01:02:00,47.7,41.5,29.66,ESE,103,0.0,0.0,79,0.00,CLR,,0.00,0.0,WeatherDisplay:10.37,2013-08-22 13:02:00,
2013-08-23 01:07:00,47.5,41.3,29.66,ESE,103,0.0,0.0,79,0.00,CLR,,0.00,0.0,WeatherDisplay:10.37,2013-08-22 13:07:00,
2013-08-23 01:12:00,47.3,41.4,29.66,ESE,103,0.0,0.0,80,0.00,CLR,,0.00,0.0,WeatherDisplay:10.37,2013-08-22 13:12:00,
2013-08-23 01:17:00,47.0,41.1,29.66,ESE,103,0.0,0.0,80,0.00,CLR,,0.00,0.0,WeatherDisplay:10.37,2013-08-22 13:17:00,
2013-08-23 01:22:00,46.9,41.1,29.66,ESE,103,0.0,0.0,80,0.00,CLR,,0.00,0.0,WeatherDisplay:10.37,2013-08-22 13:22:00,
2013-08-23 01:27:00,46.9,41.1,29.66,ESE,103,0.0,0.0,80,0.00,CLR,,0.00,0.0,WeatherDisplay:10.37,2013-08-22 13:27:00,
2013-08-23 01:32:00,46.9,41.4,29.66,ESE,103,0.0,0.0,81,0.00,CLR,,0.00,0.0,WeatherDisplay:10.37,2013-08-22 13:32:00,
2013-08-23 01:37:00,46.8,41.3,29.66,ESE,103,0.0,0.0,81,0.00,CLR,,0.00,0.0,WeatherDisplay:10.37,2013-08-22 13:37:00,
2013-08-23 01:42:00,46.9,41.1,29.67,ESE,103,0.0,0.0,80,0.00,CLR,,0.00,0.0,WeatherDisplay:10.37,2013-08-22 13:42:00,
2013-08-23 01:47:00,46.9,41.1,29.66,ESE,103,0.0,0.0,80,0.00,CLR,,0.00,0.0,WeatherDisplay:10.37,2013-08-22 13:47:00,
2013-08-23 01:52:00,46.6,40.8,29.66,ESE,103,2.2,3.5,80,0.00,CLR,,0.00,0.0,WeatherDisplay:10.37,2013-08-22 13:52:00,
2013-08-23 01:57:00,46.5,41.0,29.66,ESE,103,0.0,0.0,81,0.00,CLR,,0.00,0.0,WeatherDisplay:10.37,2013-08-22 13:57:00,
2013-08-23 02:02:00,46.4,40.9,29.66,ESE,103,0.0,1.2,81,0.00,CLR,,0.00,0.0,WeatherDisplay:10.37,2013-08-22 14:02:00,
2013-08-23 02:07:00,46.6,40.8,29.66,ESE,103,0.0,0.0,80,0.00,CLR,,0.00,0.0,WeatherDisplay:10.37,2013-08-22 14:07:00,
2013-08-23 02:12:00,47.0,40.5,29.67,ESE,103,0.0,0.0,78,0.00,CLR,,0.00,0.0,WeatherDisplay:10.37,2013-08-22 14:12:00,
2013-08-23 02:17:00,47.4,40.6,29.66,ESE,103,0.0,1.2,77,0.00,CLR,,0.00,0.0,WeatherDisplay:10.37,2013-08-22 14:17:00,
2013-08-23 02:22:00,47.8,40.6,29.66,ESE,103,0.0,1.2,76,0.00,CLR,,0.00,0.0,WeatherDisplay:10.37,2013-08-22 14:22:00,
2013-08-23 02:27:00,48.1,40.5,29.66,ESE,103,0.0,0.0,75,0.00,CLR,,0.00,0.0,WeatherDisplay:10.37,2013-08-22 14:27:00,
2013-08-23 02:32:00,48.2,40.3,29.67,ESE,103,0.0,0.0,74,0.00,CLR,,0.00,0.0,WeatherDisplay:10.37,2013-08-22 14:32:00,
2013-08-23 02:37:00,48.2,40.3,29.67,ESE,103,0.0,0.0,74,0.00,CLR,,0.00,0.0,WeatherDisplay:10.37,2013-08-22 14:37:00,
2013-08-23 02:42:00,48.0,40.1,29.67,ESE,103,0.0,0.0,74,0.00,CLR,,0.00,0.0,WeatherDisplay:10.37,2013-08-22 14:42:00,
2013-08-23 02:47:00,47.9,40.0,29.66,ESE,103,0.4,1.2,74,0.00,CLR,,0.00,0.0,WeatherDisplay:10.37,2013-08-22 14:47:00,
2013-08-23 02:52:00,48.3,40.0,29.66,ESE,103,0.0,0.0,73,0.00,CLR,,0.00,0.0,WeatherDisplay:10.37,2013-08-22 14:52:00,
2013-08-23 02:57:00,48.7,40.1,29.67,ESE,103,0.1,2.3,72,0.00,CLR,,0.00,0.0,WeatherDisplay:10.37,2013-08-22 14:57:00,
2013-08-23 03:02:00,48.9,39.9,29.67,ESE,103,0.0,0.0,71,0.00,CLR,,0.00,0.0,WeatherDisplay:10.37,2013-08-22 15:02:00,
2013-08-23 03:07:00,48.9,39.5,29.67,ESE,103,0.0,0.0,70,0.00,CLR,,0.00,0.0,WeatherDisplay:10.37,2013-08-22 15:07:00,
2013-08-23 03:12:00,48.8,39.4,29.67,ESE,103,0.0,0.0,70,0.00,CLR,,0.00,0.0,WeatherDisplay:10.37,2013-08-22 15:12:00,
2013-08-23 03:17:00,48.7,39.4,29.67,ESE,103,0.0,0.0,70,0.00,CLR,,0.00,0.0,WeatherDisplay:10.37,2013-08-22 15:17:00,
2013-08-23 03:22:00,48.7,39.4,29.67,ESE,103,0.0,0.0,70,0.00,CLR,,0.00,0.0,WeatherDisplay:10.37,2013-08-22 15:22:00,
2013-08-23 03:27:00,48.6,39.6,29.67,ESE,103,0.0,0.0,71,0.00,CLR,,0.00,0.0,WeatherDisplay:10.37,2013-08-22 15:27:00,
2013-08-23 03:32:00,48.6,39.3,29.66,ESE,103,0.0,0.0,70,0.00,CLR,,0.00,0.0,WeatherDisplay:10.37,2013-08-22 15:32:00,
2013-08-23 03:37:00,48.8,39.8,29.66,ESE,103,0.0,1.2,71,0.00,CLR,,0.00,0.0,WeatherDisplay:10.37,2013-08-22 15:37:00,
2013-08-23 03:42:00,49.1,39.7,29.66,ESE,103,0.1,0.0,70,0.00,CLR,,0.00,0.0,WeatherDisplay:10.37,2013-08-22 15:42:00,
2013-08-23 03:47:00,49.3,39.9,29.66,ESE,103,0.0,0.0,70,0.00,CLR,,0.00,0.0,WeatherDisplay:10.37,2013-08-22 15:47:00,
2013-08-23 03:52:00,49.3,39.6,29.66,ESE,103,0.5,1.0,69,0.00,CLR,,0.00,0.0,WeatherDisplay:10.37,2013-08-22 15:52:00,
2013-08-23 03:57:00,49.5,39.7,29.66,ESE,103,0.0,0.0,69,0.00,CLR,,0.00,0.0,WeatherDisplay:10.37,2013-08-22 15:57:00,
2013-08-23 04:02:00,49.5,39.7,29.66,ESE,103,1.7,2.3,69,0.00,CLR,,0.00,0.0,WeatherDisplay:10.37,2013-08-22 16:02:00,
2013-08-23 04:07:00,49.5,39.7,29.66,ESE,103,0.0,2.3,69,0.00,CLR,,0.00,0.0,WeatherDisplay:10.37,2013-08-22 16:07:00,
2013-08-23 04:12:00,49.5,39.7,29.65,ESE,103,0.5,2.3,69,0.00,CLR,,0.00,0.0,WeatherDisplay:10.37,2013-08-22 16:12:00,
2013-08-23 04:17:00,49.5,39.7,29.66,ESE,103,0.0,0.0,69,0.00,CLR,,0.00,0.0,WeatherDisplay:10.37,2013-08-22 16:17:00,
2013-08-23 04:22:00,49.6,39.8,29.65,ESE,103,0.0,0.0,69,0.00,CLR,,0.00,0.0,WeatherDisplay:10.37,2013-08-22 16:22:00,
2013-08-23 04:27:00,49.6,39.8,29.66,ESE,103,0.1,1.0,69,0.00,CLR,,0.00,0.0,WeatherDisplay:10.37,2013-08-22 16:27:00,
2013-08-23 04:32:00,49.5,39.7,29.66,ESE,103,0.0,0.0,69,0.00,CLR,,0.00,0.0,WeatherDisplay:10.37,2013-08-22 16:32:00,
2013-08-23 04:37:00,49.5,39.7,29.66,ESE,103,0.0,0.0,69,0.00,CLR,,0.00,0.0,WeatherDisplay:10.37,2013-08-22 16:37:00,
2013-08-23 04:42:00,49.5,39.7,29.66,ESE,103,0.1,0.0,69,0.00,CLR,,0.00,0.0,WeatherDisplay:10.37,2013-08-22 16:42:00,
2013-08-23 04:47:00,49.4,39.7,29.67,ESE,103,0.0,0.0,69,0.00,CLR,,0.00,0.0,WeatherDisplay:10.37,2013-08-22 16:47:00,
2013-08-23 04:52:00,49.3,39.6,29.66,ESE,103,0.0,0.0,69,0.00,CLR,,0.00,0.0,WeatherDisplay:10.37,2013-08-22 16:52:00,
2013-08-23 04:57:00,49.2,39.5,29.66,ESE,103,0.0,0.0,69,0.00,CLR,,0.00,0.0,WeatherDisplay:10.37,2013-08-22 16:57:00,
2013-08-23 05:02:00,49.3,39.2,29.66,ESE,103,0.0,0.0,68,0.00,CLR,,0.00,0.0,WeatherDisplay:10.37,2013-08-22 17:02:00,
2013-08-23 05:07:00,49.5,39.7,29.66,ESE,103,0.0,0.0,69,0.00,CLR,,0.00,0.0,WeatherDisplay:10.37,2013-08-22 17:07:00,
2013-08-23 05:12:00,49.1,40.1,29.67,ESE,103,0.0,0.0,71,0.00,CLR,,0.00,0.0,WeatherDisplay:10.37,2013-08-22 17:12:00,
2013-08-23 05:17:00,48.7,39.7,29.67,ESE,103,0.0,0.0,71,0.00,CLR,,0.00,0.0,WeatherDisplay:10.37,2013-08-22 17:17:00,
2013-08-23 05:22:00,48.3,40.0,29.67,ESE,103,0.0,0.0,73,0.00,CLR,,0.00,0.0,WeatherDisplay:10.37,2013-08-22 17:22:00,
2013-08-23 05:27:00,48.0,40.1,29.66,ESE,103,0.0,0.0,74,0.00,CLR,,0.00,0.0,WeatherDisplay:10.37,2013-08-22 17:27:00,
2013-08-23 05:32:00,47.7,39.8,29.67,ESE,103,0.0,0.0,74,0.00,CLR,,0.00,0.0,WeatherDisplay:10.37,2013-08-22 17:32:00,
2013-08-23 05:37:00,47.5,40.0,29.67,ESE,103,0.0,0.0,75,0.00,CLR,,0.00,0.0,WeatherDisplay:10.37,2013-08-22 17:37:00,
2013-08-23 05:42:00,47.5,39.6,29.67,ESE,103,0.0,0.0,74,0.00,CLR,,0.00,0.0,WeatherDisplay:10.37,2013-08-22 17:42:00,
2013-08-23 05:47:00,47.6,39.7,29.67,ESE,103,0.0,0.0,74,0.00,CLR,,0.00,0.0,WeatherDisplay:10.37,2013-08-22 17:47:00,
2013-08-23 05:52:00,47.7,39.8,29.67,ESE,103,0.0,0.0,74,0.00,CLR,,0.00,0.0,WeatherDisplay:10.37,2013-08-22 17:52:00,
2013-08-23 05:57:00,48.0,39.8,29.67,ESE,103,0.0,0.0,73,0.00,CLR,,0.00,0.0,WeatherDisplay:10.37,2013-08-22 17:57:00,
2013-08-23 06:02:00,48.9,39.5,29.67,NNW,333,0.3,3.5,70,0.00,CLR,,0.00,0.0,WeatherDisplay:10.37,2013-08-22 18:02:00,
2013-08-23 06:07:00,49.3,39.6,29.67,NNW,333,0.5,1.2,69,0.00,CLR,,0.00,0.0,WeatherDisplay:10.37,2013-08-22 18:07:00,
2013-08-23 06:12:00,49.5,39.7,29.67,NNW,333,0.8,2.0,69,0.00,CLR,,0.00,0.0,WeatherDisplay:10.37,2013-08-22 18:12:00,
2013-08-23 06:17:00,49.3,39.6,29.67,NNW,334,1.2,2.3,69,0.00,CLR,,0.00,0.0,WeatherDisplay:10.37,2013-08-22 18:17:00,
2013-08-23 06:22:00,49.0,39.6,29.67,NNW,334,0.0,0.0,70,0.00,CLR,,0.00,0.0,WeatherDisplay:10.37,2013-08-22 18:22:00,
2013-08-23 06:27:00,48.8,39.4,29.67,NNW,334,0.0,0.0,70,0.00,CLR,,0.00,0.0,WeatherDisplay:10.37,2013-08-22 18:27:00,
2013-08-23 06:32:00,48.6,39.6,29.67,NNW,334,0.0,0.0,71,0.00,CLR,,0.00,0.0,WeatherDisplay:10.37,2013-08-22 18:32:00,
2013-08-23 06:37:00,48.1,39.5,29.67,NNW,334,0.0,0.0,72,0.00,CLR,,0.00,0.0,WeatherDisplay:10.37,2013-08-22 18:37:00,
2013-08-23 06:42:00,47.4,39.5,29.68,NNW,334,0.0,0.0,74,0.00,CLR,,0.00,0.0,WeatherDisplay:10.37,2013-08-22 18:42:00,
2013-08-23 06:47:00,47.1,39.2,29.68,NNW,334,0.2,2.3,74,0.00,CLR,,0.00,0.0,WeatherDisplay:10.37,2013-08-22 18:47:00,
2013-08-23 06:52:00,47.3,39.4,29.68,NNW,327,1.7,3.0,74,0.00,CLR,,0.00,0.0,WeatherDisplay:10.37,2013-08-22 18:52:00,
2013-08-23 06:57:00,48.0,39.4,29.68,NW,325,1.2,3.5,72,0.00,CLR,,0.00,0.0,WeatherDisplay:10.37,2013-08-22 18:57:00,
2013-08-23 07:02:00,48.9,39.5,29.67,NNW,334,1.9,6.9,70,0.00,OVC,,0.00,0.0,WeatherDisplay:10.37,2013-08-22 19:02:00,
2013-08-23 07:07:00,49.1,39.4,29.68,WNW,297,0.0,1.2,69,0.00,OVC,,0.00,0.0,WeatherDisplay:10.37,2013-08-22 19:07:00,
2013-08-23 07:12:00,48.9,39.5,29.67,WNW,297,0.0,0.0,70,0.00,OVC,,0.00,0.0,WeatherDisplay:10.37,2013-08-22 19:12:00,
2013-08-23 07:17:00,48.6,39.3,29.67,WNW,296,0.0,0.0,70,0.00,OVC,,0.00,0.0,WeatherDisplay:10.37,2013-08-22 19:17:00,
2013-08-23 07:22:00,48.1,39.1,29.67,WNW,297,0.0,0.0,71,0.00,SCT,,0.00,5.0,WeatherDisplay:10.37,2013-08-22 19:22:00,
2013-08-23 07:27:00,47.6,39.0,29.68,WNW,297,0.0,0.0,72,0.00,BKN,,0.00,9.0,WeatherDisplay:10.37,2013-08-22 19:27:00,
2013-08-23 07:32:00,47.1,38.9,29.68,WNW,296,0.0,0.0,73,0.00,BKN,,0.00,12.0,WeatherDisplay:10.37,2013-08-22 19:32:00,
2013-08-23 07:37:00,46.9,39.0,29.68,WNW,297,0.0,0.0,74,0.00,BKN,,0.00,18.0,WeatherDisplay:10.37,2013-08-22 19:37:00,
2013-08-23 07:42:00,46.7,39.2,29.68,WNW,297,0.0,0.0,75,0.00,FEW,,0.00,33.0,WeatherDisplay:10.37,2013-08-22 19:42:00,
2013-08-23 07:47:00,46.6,39.1,29.68,WNW,296,0.0,1.2,75,0.00,SCT,,0.00,26.0,WeatherDisplay:10.37,2013-08-22 19:47:00,
2013-08-23 07:52:00,46.4,39.2,29.68,WNW,296,0.0,0.0,76,0.00,BKN,,0.00,28.0,WeatherDisplay:10.37,2013-08-22 19:52:00,
2013-08-23 07:57:00,46.3,39.1,29.69,WNW,296,0.2,1.2,76,0.00,BKN,,0.00,28.0,WeatherDisplay:10.37,2013-08-22 19:57:00,
2013-08-23 08:02:00,46.3,39.1,29.68,WNW,297,0.0,0.0,76,0.00,BKN,,0.00,28.0,WeatherDisplay:10.37,2013-08-22 20:02:00,
2013-08-23 08:07:00,46.2,39.4,29.68,WNW,297,0.3,2.3,77,0.00,BKN,,0.00,33.0,WeatherDisplay:10.37,2013-08-22 20:07:00,
2013-08-23 08:12:00,46.2,39.4,29.69,WNW,297,0.0,0.0,77,0.00,BKN,,0.00,35.0,WeatherDisplay:10.37,2013-08-22 20:12:00,
2013-08-23 08:17:00,46.1,39.3,29.69,WNW,296,0.2,1.2,77,0.00,BKN,,0.00,35.0,WeatherDisplay:10.37,2013-08-22 20:17:00,
2013-08-23 08:22:00,46.0,39.5,29.69,WNW,297,0.5,2.3,78,0.00,BKN,,0.00,42.0,WeatherDisplay:10.37,2013-08-22 20:22:00,
2013-08-23 08:27:00,46.1,39.6,29.69,WNW,296,0.0,0.0,78,0.00,BKN,,0.00,51.0,WeatherDisplay:10.37,2013-08-22 20:27:00,
2013-08-23 08:32:00,46.1,39.3,29.69,WNW,297,0.0,0.0,77,0.00,BKN,,0.00,49.0,WeatherDisplay:10.37,2013-08-22 20:32:00,
2013-08-23 08:37:00,46.1,39.9,29.69,WNW,297,1.9,2.3,79,0.00,BKN,,0.00,53.0,WeatherDisplay:10.37,2013-08-22 20:37:00,
2013-08-23 08:42:00,46.2,39.7,29.69,WNW,297,0.0,0.0,78,0.00,BKN,,0.00,58.0,WeatherDisplay:10.37,2013-08-22 20:42:00,
2013-08-23 08:47:00,46.3,39.8,29.69,WNW,297,0.0,1.0,78,0.00,BKN,,0.00,62.0,WeatherDisplay:10.37,2013-08-22 20:47:00,
2013-08-23 08:52:00,46.3,39.8,29.70,WNW,297,0.0,1.2,78,0.00,BKN,,0.00,70.0,WeatherDisplay:10.37,2013-08-22 20:52:00,
2013-08-23 08:57:00,46.4,39.9,29.70,WNW,297,0.0,0.0,78,0.00,BKN,,0.00,111.0,WeatherDisplay:10.37,2013-08-22 20:57:00,
2013-08-23 09:02:00,46.7,40.2,29.70,WNW,296,0.0,0.0,78,0.00,BKN,,0.00,232.0,WeatherDisplay:10.37,2013-08-22 21:02:00,
2013-08-23 09:07:00,47.6,40.7,29.69,WNW,296,0.7,2.3,77,0.00,FEW,,0.00,301.0,WeatherDisplay:10.37,2013-08-22 21:07:00,
2013-08-23 09:12:00,49.5,41.2,29.69,NNE,22,0.8,3.0,73,0.00,CLR,,0.00,309.0,WeatherDisplay:10.37,2013-08-22 21:12:00,
2013-08-23 09:17:00,51.0,40.4,29.70,NNE,22,2.8,3.5,67,0.00,CLR,,0.00,323.0,WeatherDisplay:10.37,2013-08-22 21:17:00,
2013-08-23 09:22:00,51.7,39.9,29.70,NNE,33,0.8,3.5,64,0.00,CLR,,0.00,336.0,WeatherDisplay:10.37,2013-08-22 21:22:00,
2013-08-23 09:27:00,52.4,40.2,29.70,NNE,22,1.4,4.6,63,0.00,CLR,,0.00,346.0,WeatherDisplay:10.37,2013-08-22 21:27:00,
2013-08-23 09:32:00,53.0,39.5,29.69,NNE,29,4.8,8.1,60,0.00,CLR,,0.00,359.0,WeatherDisplay:10.37,2013-08-22 21:32:00,
2013-08-23 09:37:00,53.5,39.5,29.70,North,5,1.3,2.3,59,0.00,CLR,,0.00,373.0,WeatherDisplay:10.37,2013-08-22 21:37:00,
2013-08-23 09:42:00,54.1,39.2,29.70,NE,45,2.3,9.0,57,0.00,CLR,,0.00,302.0,WeatherDisplay:10.37,2013-08-22 21:42:00,
2013-08-23 09:47:00,54.1,39.2,29.70,NNE,22,2.0,5.0,57,0.00,CLR,,0.00,401.0,WeatherDisplay:10.37,2013-08-22 21:47:00,
2013-08-23 09:52:00,54.5,39.6,29.70,North,355,2.7,4.6,57,0.00,CLR,,0.00,411.0,WeatherDisplay:10.37,2013-08-22 21:52:00,
2013-08-23 09:57:00,55.1,39.2,29.70,North,355,3.8,8.0,55,0.00,CLR,,0.00,418.0,WeatherDisplay:10.37,2013-08-22 21:57:00,
2013-08-23 10:02:00,55.3,39.4,29.70,NNW,330,4.4,10.4,55,0.00,CLR,,0.00,436.0,WeatherDisplay:10.37,2013-08-22 22:02:00,
2013-08-23 10:07:00,55.8,39.9,29.70,NW,321,3.5,5.0,55,0.00,CLR,,0.00,432.0,WeatherDisplay:10.37,2013-08-22 22:07:00,
2013-08-23 10:12:00,56.0,39.1,29.70,North,355,4.5,9.2,53,0.00,CLR,,0.00,359.0,WeatherDisplay:10.37,2013-08-22 22:12:00,
2013-08-23 10:17:00,56.2,39.3,29.70,NW,317,3.9,4.6,53,0.00,CLR,,0.00,462.0,WeatherDisplay:10.37,2013-08-22 22:17:00,
2013-08-23 10:22:00,56.7,39.3,29.70,NNE,12,5.8,11.5,52,0.00,CLR,,0.00,471.0,WeatherDisplay:10.37,2013-08-22 22:22:00,
2013-08-23 10:27:00,57.0,39.5,29.70,North,5,2.4,9.2,52,0.00,CLR,,0.00,478.0,WeatherDisplay:10.37,2013-08-22 22:27:00,
2013-08-23 10:32:00,57.5,39.5,29.70,North,360,3.6,9.2,51,0.00,CLR,,0.00,489.0,WeatherDisplay:10.37,2013-08-22 22:32:00,
2013-08-23 10:37:00,57.9,39.4,29.70,North,11,3.1,5.8,50,0.00,CLR,,0.00,497.0,WeatherDisplay:10.37,2013-08-22 22:37:00,
2013-08-23 10:42:00,58.5,39.9,29.70,NNW,327,3.9,8.1,50,0.00,CLR,,0.00,506.0,WeatherDisplay:10.37,2013-08-22 22:42:00,
2013-08-23 10:47:00,58.9,39.8,29.70,NNW,340,4.5,8.1,49,0.00,CLR,,0.00,510.0,WeatherDisplay:10.37,2013-08-22 22:47:00,
2013-08-23 10:52:00,59.1,39.4,29.70,NNW,343,3.5,9.2,48,0.00,CLR,,0.00,485.0,WeatherDisplay:10.37,2013-08-22 22:52:00,
2013-08-23 10:57:00,59.3,39.1,29.70,NNW,332,3.8,8.1,47,0.00,CLR,,0.00,359.0,WeatherDisplay:10.37,2013-08-22 22:57:00,
2013-08-23 11:02:00,59.4,39.7,29.70,NNW,335,4.2,8.1,48,0.00,CLR,,0.00,570.0,WeatherDisplay:10.37,2013-08-22 23:02:00,
2013-08-23 11:07:00,59.7,40.5,29.70,NNW,342,2.9,10.4,49,0.00,CLR,,0.00,594.0,WeatherDisplay:10.37,2013-08-22 23:07:00,
2013-08-23 11:12:00,60.2,39.3,29.70,NW,311,5.0,8.1,46,0.00,CLR,,0.00,606.0,WeatherDisplay:10.37,2013-08-22 23:12:00,
2013-08-23 11:17:00,59.6,39.3,29.70,NW,325,3.9,6.9,47,0.00,CLR,,0.00,156.0,WeatherDisplay:10.37,2013-08-22 23:17:00,
2013-08-23 11:22:00,59.1,39.4,29.71,NW,310,4.7,8.1,48,0.00,SCT,,0.00,262.0,WeatherDisplay:10.37,2013-08-22 23:22:00,
2013-08-23 11:27:00,59.6,39.9,29.70,NNW,331,3.7,4.0,48,0.00,FEW,,0.00,673.0,WeatherDisplay:10.37,2013-08-22 23:27:00,
2013-08-23 11:32:00,60.2,40.4,29.70,North,355,2.7,5.8,48,0.00,CLR,,0.00,694.0,WeatherDisplay:10.37,2013-08-22 23:32:00,
2013-08-23 11:37:00,60.6,39.7,29.70,NNW,329,3.7,5.0,46,0.00,CLR,,0.00,538.0,WeatherDisplay:10.37,2013-08-22 23:37:00,
2013-08-23 11:42:00,60.7,39.8,29.70,North,360,1.8,8.1,46,0.00,CLR,,0.00,628.0,WeatherDisplay:10.37,2013-08-22 23:42:00,
2013-08-23 11:47:00,60.9,39.4,29.70,NNW,345,4.3,9.0,45,0.00,CLR,,0.00,587.0,WeatherDisplay:10.37,2013-08-22 23:47:00,
2013-08-23 11:52:00,60.8,39.3,29.70,WNW,288,3.4,4.6,45,0.00,CLR,,0.00,121.0,WeatherDisplay:10.37,2013-08-22 23:52:00,
2013-08-23 11:57:00,60.7,39.8,29.70,NNW,331,2.2,5.8,46,0.00,FEW,,0.00,570.0,WeatherDisplay:10.37,2013-08-22 23:57:00,
2013-08-23 12:02:00,61.0,40.1,29.70,NNW,336,3.3,8.1,46,0.00,FEW,,0.00,605.0,WeatherDisplay:10.37,2013-08-23 00:02:00,
2013-08-23 12:07:00,61.1,40.1,29.70,NNW,329,3.1,8.1,46,0.00,CLR,,0.00,596.0,WeatherDisplay:10.37,2013-08-23 00:07:00,
2013-08-23 12:12:00,61.3,39.8,29.70,NW,310,3.9,8.1,45,0.00,CLR,,0.00,594.0,WeatherDisplay:10.37,2013-08-23 00:12:00,
2013-08-23 12:17:00,61.6,40.0,29.70,NW,306,1.9,6.9,45,0.00,CLR,,0.00,591.0,WeatherDisplay:10.37,2013-08-23 00:17:00,
2013-08-23 12:22:00,62.3,38.9,29.70,North,11,7.8,9.2,42,0.00,CLR,,0.00,591.0,WeatherDisplay:10.37,2013-08-23 00:22:00,
2013-08-23 12:27:00,62.3,38.9,29.70,NW,326,5.3,9.2,42,0.00,CLR,,0.00,589.0,WeatherDisplay:10.37,2013-08-23 00:27:00,
2013-08-23 12:32:00,62.1,38.1,29.69,NNW,340,5.5,12.7,41,0.00,CLR,,0.00,589.0,WeatherDisplay:10.37,2013-08-23 00:32:00,
2013-08-23 12:37:00,62.1,38.1,29.69,NNW,330,3.8,8.1,41,0.00,CLR,,0.00,589.0,WeatherDisplay:10.37,2013-08-23 00:37:00,
2013-08-23 12:42:00,62.4,38.4,29.69,NNW,342,2.7,9.2,41,0.00,CLR,,0.00,587.0,WeatherDisplay:10.37,2013-08-23 00:42:00,
2013-08-23 12:47:00,62.4,37.7,29.69,NNW,337,6.9,9.2,40,0.00,CLR,,0.00,584.0,WeatherDisplay:10.37,2013-08-23 00:47:00,
2013-08-23 12:52:00,62.4,38.4,29.69,NNW,344,2.8,11.5,41,0.00,CLR,,0.00,584.0,WeatherDisplay:10.37,2013-08-23 00:52:00,
2013-08-23 12:57:00,63.0,38.9,29.69,NNW,348,2.8,10.4,41,0.00,CLR,,0.00,584.0,WeatherDisplay:10.37,2013-08-23 00:57:00,
2013-08-23 13:02:00,63.5,39.4,29.69,NW,318,3.1,10.4,41,0.00,CLR,,0.00,584.0,WeatherDisplay:10.37,2013-08-23 01:02:00,
2013-08-23 13:07:00,63.0,37.6,29.69,NNW,330,7.5,11.5,39,0.00,CLR,,0.00,578.0,WeatherDisplay:10.37,2013-08-23 01:07:00,
2013-08-23 13:12:00,62.9,38.2,29.69,NW,325,7.3,12.0,40,0.00,CLR,,0.00,573.0,WeatherDisplay:10.37,2013-08-23 01:12:00,
2013-08-23 13:17:00,63.2,37.2,29.69,NW,308,3.5,5.0,38,0.00,CLR,,0.00,570.0,WeatherDisplay:10.37,2013-08-23 01:17:00,
2013-08-23 13:22:00,63.9,38.4,29.69,NNW,335,1.6,2.3,39,0.00,CLR,,0.00,568.0,WeatherDisplay:10.37,2013-08-23 01:22:00,
2013-08-23 13:27:00,64.6,37.7,29.69,West,265,2.9,6.9,37,0.00,CLR,,0.00,563.0,WeatherDisplay:10.37,2013-08-23 01:27:00,
2013-08-23 13:32:00,64.2,37.4,29.69,NNW,340,3.3,6.9,37,0.00,CLR,,0.00,555.0,WeatherDisplay:10.37,2013-08-23 01:32:00,
2013-08-23 13:37:00,63.7,37.6,29.68,NNW,336,1.1,4.0,38,0.00,CLR,,0.00,550.0,WeatherDisplay:10.37,2013-08-23 01:37:00,
2013-08-23 13:42:00,64.1,37.3,29.68,East,86,0.0,3.5,37,0.00,CLR,,0.00,540.0,WeatherDisplay:10.37,2013-08-23 01:42:00,
2013-08-23 13:47:00,64.2,36.7,29.68,NW,311,4.1,11.5,36,0.00,CLR,,0.00,540.0,WeatherDisplay:10.37,2013-08-23 01:47:00,
2013-08-23 13:52:00,64.0,37.2,29.69,North,355,3.3,5.8,37,0.00,CLR,,0.00,536.0,WeatherDisplay:10.37,2013-08-23 01:52:00,
2013-08-23 13:57:00,64.2,36.7,29.69,NW,309,1.8,3.5,36,0.00,CLR,,0.00,529.0,WeatherDisplay:10.37,2013-08-23 01:57:00,
2013-08-23 14:02:00,64.6,37.7,29.69,WNW,292,1.8,5.0,37,0.00,CLR,,0.00,520.0,WeatherDisplay:10.37,2013-08-23 02:02:00,
2013-08-23 14:07:00,64.8,37.2,29.68,WNW,288,0.2,2.0,36,0.00,CLR,,0.00,508.0,WeatherDisplay:10.37,2013-08-23 02:07:00,
2013-08-23 14:12:00,64.3,36.8,29.68,WNW,286,2.2,8.1,36,0.00,CLR,,0.00,508.0,WeatherDisplay:10.37,2013-08-23 02:12:00,
2013-08-23 14:17:00,64.3,37.5,29.68,West,267,3.1,8.1,37,0.00,CLR,,0.00,497.0,WeatherDisplay:10.37,2013-08-23 02:17:00,
2013-08-23 14:22:00,64.6,38.4,29.68,WNW,298,1.4,4.0,38,0.00,CLR,,0.00,490.0,WeatherDisplay:10.37,2013-08-23 02:22:00,
2013-08-23 14:27:00,64.9,36.6,29.69,NNW,336,4.0,5.8,35,0.00,CLR,,0.00,483.0,WeatherDisplay:10.37,2013-08-23 02:27:00,
2013-08-23 14:32:00,64.2,37.4,29.69,North,355,1.7,6.0,37,0.00,CLR,,0.00,469.0,WeatherDisplay:10.37,2013-08-23 02:32:00,
2013-08-23 14:37:00,64.0,35.8,29.69,NW,317,4.1,10.4,35,0.00,CLR,,0.00,471.0,WeatherDisplay:10.37,2013-08-23 02:37:00,
2013-08-23 14:42:00,64.1,36.6,29.68,NNW,329,2.0,4.6,36,0.00,CLR,,0.00,455.0,WeatherDisplay:10.37,2013-08-23 02:42:00,
2013-08-23 14:47:00,64.9,38.0,29.68,NE,39,0.8,1.0,37,0.00,CLR,,0.00,443.0,WeatherDisplay:10.37,2013-08-23 02:47:00,
2013-08-23 14:52:00,65.3,36.9,29.69,NW,322,3.6,6.0,35,0.00,CLR,,0.00,432.0,WeatherDisplay:10.37,2013-08-23 02:52:00,
2013-08-23 14:57:00,65.1,37.5,29.69,NNW,330,3.3,4.6,36,0.00,CLR,,0.00,420.0,WeatherDisplay:10.37,2013-08-23 02:57:00,
2013-08-23 15:02:00,65.1,37.5,29.69,NW,311,1.1,2.3,36,0.00,CLR,,0.00,418.0,WeatherDisplay:10.37,2013-08-23 03:02:00,
2013-08-23 15:07:00,64.8,35.8,29.69,WNW,294,5.2,6.9,34,0.00,CLR,,0.00,411.0,WeatherDisplay:10.37,2013-08-23 03:07:00,
2013-08-23 15:12:00,64.6,36.3,29.69,NW,306,0.5,4.6,35,0.00,CLR,,0.00,403.0,WeatherDisplay:10.37,2013-08-23 03:12:00,
2013-08-23 15:17:00,64.6,35.6,29.69,NNW,331,2.0,3.5,34,0.00,CLR,,0.00,380.0,WeatherDisplay:10.37,2013-08-23 03:17:00,
2013-08-23 15:22:00,64.8,37.2,29.69,SSW,209,1.7,11.5,36,0.00,CLR,,0.00,369.0,WeatherDisplay:10.37,2013-08-23 03:22:00,
2013-08-23 15:27:00,64.9,37.3,29.69,West,277,0.7,1.2,36,0.00,CLR,,0.00,359.0,WeatherDisplay:10.37,2013-08-23 03:27:00,
2013-08-23 15:32:00,65.0,37.4,29.69,NW,320,1.8,3.5,36,0.00,CLR,,0.00,371.0,WeatherDisplay:10.37,2013-08-23 03:32:00,
2013-08-23 15:37:00,65.0,35.9,29.69,North,350,1.2,4.6,34,0.00,CLR,,0.00,341.0,WeatherDisplay:10.37,2013-08-23 03:37:00,
2013-08-23 15:42:00,64.9,36.6,29.69,WNW,303,2.3,9.2,35,0.00,CLR,,0.00,330.0,WeatherDisplay:10.37,2013-08-23 03:42:00,
2013-08-23 15:47:00,64.9,37.3,29.69,NW,323,0.1,3.5,36,0.00,CLR,,0.00,313.0,WeatherDisplay:10.37,2013-08-23 03:47:00,
2013-08-23 15:52:00,65.3,35.4,29.69,NNW,342,2.6,5.0,33,0.00,CLR,,0.00,297.0,WeatherDisplay:10.37,2013-08-23 03:52:00,
2013-08-23 15:57:00,65.3,36.2,29.69,NW,304,2.9,4.0,34,0.00,CLR,,0.00,285.0,WeatherDisplay:10.37,2013-08-23 03:57:00,
2013-08-23 16:01:00,65.1,36.0,29.69,NW,310,0.5,3.5,34,0.00,CLR,,0.00,276.0,WeatherDisplay:10.37,2013-08-23 04:01:00,
2013-08-23 16:02:00,65.1,36.0,29.69,NW,306,1.4,3.5,34,0.00,CLR,,0.00,274.0,WeatherDisplay:10.37,2013-08-23 04:02:00,
2013-08-23 16:04:00,65.0,36.7,29.69,West,261,1.4,3.5,35,0.00,CLR,,0.00,264.0,WeatherDisplay:10.37,2013-08-23 04:04:00,
2013-08-23 16:09:00,65.0,36.7,29.69,WNW,295,0.9,4.0,35,0.00,CLR,,0.00,248.0,WeatherDisplay:10.37,2013-08-23 04:09:00,
2013-08-23 16:14:00,65.2,36.1,29.69,WNW,295,0.7,1.2,34,0.00,CLR,,0.00,236.0,WeatherDisplay:10.37,2013-08-23 04:14:00,
2013-08-23 16:19:00,65.0,36.7,29.69,West,269,2.6,6.0,35,0.00,CLR,,0.00,220.0,WeatherDisplay:10.37,2013-08-23 04:19:00,
2013-08-23 16:24:00,63.5,44.5,29.70,SW,214,0.4,3.5,50,0.00,CLR,,0.00,202.0,WeatherDisplay:10.37,2013-08-23 04:24:00,
2013-08-23 16:29:00,62.0,44.7,29.70,SW,214,1.2,3.5,53,0.00,CLR,,0.00,183.0,WeatherDisplay:10.37,2013-08-23 04:29:00,
2013-08-23 16:34:00,61.0,45.7,29.70,SW,214,0.3,2.3,57,0.00,CLR,,0.00,163.0,WeatherDisplay:10.37,2013-08-23 04:34:00,
2013-08-23 16:39:00,60.5,46.1,29.70,WSW,244,0.5,2.3,59,0.00,CLR,,0.00,146.0,WeatherDisplay:10.37,2013-08-23 04:39:00,
2013-08-23 16:44:00,60.0,46.5,29.70,WSW,244,0.0,0.0,61,0.00,FEW,,0.00,127.0,WeatherDisplay:10.37,2013-08-23 04:44:00,
2013-08-23 16:49:00,59.4,46.4,29.70,SW,223,2.0,3.5,62,0.00,FEW,,0.00,111.0,WeatherDisplay:10.37,2013-08-23 04:49:00,
2013-08-23 16:54:00,57.9,46.2,29.71,SSW,213,0.1,1.2,65,0.00,FEW,,0.00,93.0,WeatherDisplay:10.37,2013-08-23 04:54:00,
2013-08-23 16:59:00,57.3,46.0,29.71,WSW,240,0.1,1.2,66,0.00,FEW,,0.00,81.0,WeatherDisplay:10.37,2013-08-23 04:59:00,
2013-08-23 17:04:00,56.7,46.3,29.71,SSW,206,0.2,2.0,68,0.00,FEW,,0.00,67.0,WeatherDisplay:10.37,2013-08-23 05:04:00,
2013-08-23 17:09:00,55.9,46.3,29.71,SW,236,1.3,3.5,70,0.00,SCT,,0.00,53.0,WeatherDisplay:10.37,2013-08-23 05:09:00,
2013-08-23 17:14:00,55.5,46.6,29.71,SW,236,0.0,0.0,72,0.00,BKN,,0.00,25.0,WeatherDisplay:10.37,2013-08-23 05:14:00,
2013-08-23 17:19:00,55.0,46.5,29.71,SSW,207,0.9,3.5,73,0.00,BKN,,0.00,18.0,WeatherDisplay:10.37,2013-08-23 05:19:00,
2013-08-23 17:24:00,54.3,45.8,29.72,WSW,239,2.1,3.5,73,0.00,BKN,,0.00,16.0,WeatherDisplay:10.37,2013-08-23 05:24:00,
2013-08-23 17:29:00,53.8,45.7,29.72,WSW,254,0.7,2.0,74,0.00,BKN,,0.00,14.0,WeatherDisplay:10.37,2013-08-23 05:29:00,
2013-08-23 17:34:00,53.6,46.2,29.72,SW,233,0.5,3.5,76,0.00,BKN,,0.00,12.0,WeatherDisplay:10.37,2013-08-23 05:34:00,
2013-08-23 17:39:00,53.3,46.3,29.72,West,273,0.1,1.2,77,0.00,BKN,,0.00,11.0,WeatherDisplay:10.37,2013-08-23 05:39:00,
2013-08-23 17:44:00,53.1,46.1,29.72,West,278,0.2,3.0,77,0.00,BKN,,0.00,9.0,WeatherDisplay:10.37,2013-08-23 05:44:00,
2013-08-23 17:49:00,52.9,45.9,29.72,West,278,0.0,0.0,77,0.00,BKN,,0.00,5.0,WeatherDisplay:10.37,2013-08-23 05:49:00,
2013-08-23 17:54:00,52.6,46.3,29.72,West,277,0.0,1.2,79,0.00,SCT,,0.00,0.0,WeatherDisplay:10.37,2013-08-23 05:54:00,
2013-08-23 17:59:00,52.3,46.0,29.73,WSW,246,0.3,2.3,79,0.00,SCT,,0.00,0.0,WeatherDisplay:10.37,2013-08-23 05:59:00,
2013-08-23 18:04:00,52.1,46.4,29.73,SW,234,0.3,3.5,81,0.00,SCT,,0.00,0.0,WeatherDisplay:10.37,2013-08-23 06:04:00,
2013-08-23 18:09:00,51.9,46.6,29.73,West,279,0.6,1.2,82,0.00,SCT,,0.00,0.0,WeatherDisplay:10.37,2013-08-23 06:09:00,
2013-08-23 18:14:00,51.7,46.7,29.73,West,279,0.0,1.2,83,0.00,SCT,,0.00,0.0,WeatherDisplay:10.37,2013-08-23 06:14:00,
2013-08-23 18:19:00,51.5,46.8,29.73,West,279,0.0,1.2,84,0.00,SCT,,0.00,0.0,WeatherDisplay:10.37,2013-08-23 06:19:00,
2013-08-23 18:24:00,51.3,46.6,29.74,West,279,0.0,0.0,84,0.00,SCT,,0.00,0.0,WeatherDisplay:10.37,2013-08-23 06:24:00,
2013-08-23 18:29:00,51.1,46.4,29.74,West,279,0.0,0.0,84,0.00,SCT,,0.00,0.0,WeatherDisplay:10.37,2013-08-23 06:29:00,
2013-08-23 18:34:00,51.0,46.6,29.74,West,279,0.4,2.3,85,0.00,SCT,,0.00,0.0,WeatherDisplay:10.37,2013-08-23 06:34:00,
2013-08-23 18:39:00,50.8,46.5,29.74,West,276,0.0,0.0,85,0.00,SCT,,0.00,0.0,WeatherDisplay:10.37,2013-08-23 06:39:00,
2013-08-23 18:44:00,50.6,46.6,29.75,West,265,0.8,2.3,86,0.00,SCT,,0.00,0.0,WeatherDisplay:10.37,2013-08-23 06:44:00,
2013-08-23 18:49:00,50.4,46.7,29.75,West,265,1.8,3.5,87,0.00,SCT,,0.00,0.0,WeatherDisplay:10.37,2013-08-23 06:49:00,
2013-08-23 18:54:00,50.3,46.9,29.75,West,259,0.5,3.5,88,0.00,SCT,,0.00,0.0,WeatherDisplay:10.37,2013-08-23 06:54:00,
2013-08-23 18:59:00,50.1,47.0,29.75,West,281,0.7,3.5,89,0.00,SCT,,0.00,0.0,WeatherDisplay:10.37,2013-08-23 06:59:00,
2013-08-23 19:04:00,50.0,46.9,29.75,West,260,0.4,1.2,89,0.00,SCT,,0.00,0.0,WeatherDisplay:10.37,2013-08-23 07:04:00,
2013-08-23 19:09:00,49.8,47.0,29.75,WSW,254,1.2,3.5,90,0.00,SCT,,0.00,0.0,WeatherDisplay:10.37,2013-08-23 07:09:00,
2013-08-23 19:14:00,49.6,46.8,29.76,WSW,253,0.6,2.0,90,0.00,SCT,,0.00,0.0,WeatherDisplay:10.37,2013-08-23 07:14:00,
2013-08-23 19:19:00,49.5,47.0,29.76,WSW,256,0.4,3.0,91,0.00,SCT,,0.00,0.0,WeatherDisplay:10.37,2013-08-23 07:19:00,
2013-08-23 19:24:00,49.3,46.8,29.76,WSW,256,0.5,1.0,91,0.00,SCT,,0.00,0.0,WeatherDisplay:10.37,2013-08-23 07:24:00,
2013-08-23 19:29:00,49.2,46.7,29.76,WSW,256,0.2,0.0,91,0.00,SCT,,0.00,0.0,WeatherDisplay:10.37,2013-08-23 07:29:00,
2013-08-23 19:34:00,49.0,46.5,29.76,WSW,256,0.0,0.0,91,0.00,SCT,,0.00,0.0,WeatherDisplay:10.37,2013-08-23 07:34:00,
2013-08-23 19:39:00,48.9,46.4,29.76,WSW,256,0.1,2.0,91,0.00,SCT,,0.00,0.0,WeatherDisplay:10.37,2013-08-23 07:39:00,
2013-08-23 19:44:00,48.8,46.3,29.76,WSW,256,0.2,1.2,91,0.00,SCT,,0.00,0.0,WeatherDisplay:10.37,2013-08-23 07:44:00,
2013-08-23 19:49:00,48.7,46.5,29.77,West,263,1.3,3.5,92,0.00,SCT,,0.00,0.0,WeatherDisplay:10.37,2013-08-23 07:49:00,
2013-08-23 19:54:00,48.5,46.3,29.77,West,269,1.2,3.5,92,0.00,SCT,,0.00,0.0,WeatherDisplay:10.37,2013-08-23 07:54:00,
2013-08-23 19:59:00,48.5,46.3,29.77,West,271,0.0,3.5,92,0.00,SCT,,0.00,0.0,WeatherDisplay:10.37,2013-08-23 07:59:00,
2013-08-23 20:04:00,48.3,46.1,29.77,West,268,0.0,1.2,92,0.00,SCT,,0.00,0.0,WeatherDisplay:10.37,2013-08-23 08:04:00,
2013-08-23 20:09:00,48.2,46.3,29.77,West,268,0.0,0.0,93,0.00,SCT,,0.00,0.0,WeatherDisplay:10.37,2013-08-23 08:09:00,
2013-08-23 20:14:00,48.2,46.3,29.77,West,268,0.4,3.5,93,0.00,SCT,,0.00,0.0,WeatherDisplay:10.37,2013-08-23 08:14:00,
2013-08-23 20:19:00,48.2,46.3,29.77,West,268,0.3,3.5,93,0.00,SCT,,0.00,0.0,WeatherDisplay:10.37,2013-08-23 08:19:00,
2013-08-23 20:24:00,48.1,46.2,29.77,West,268,0.0,2.3,93,0.00,SCT,,0.00,0.0,WeatherDisplay:10.37,2013-08-23 08:24:00,
2013-08-23 20:29:00,48.0,46.1,29.77,West,268,0.0,0.0,93,0.00,SCT,,0.00,0.0,WeatherDisplay:10.37,2013-08-23 08:29:00,
2013-08-23 20:34:00,47.9,46.0,29.77,West,268,0.0,0.0,93,0.00,SCT,,0.00,0.0,WeatherDisplay:10.37,2013-08-23 08:34:00,
2013-08-23 20:39:00,47.9,46.0,29.78,West,268,0.0,1.2,93,0.00,SCT,,0.00,0.0,WeatherDisplay:10.37,2013-08-23 08:39:00,
2013-08-23 20:44:00,47.8,45.9,29.78,West,268,0.0,0.0,93,0.00,SCT,,0.00,0.0,WeatherDisplay:10.37,2013-08-23 08:44:00,
2013-08-23 20:49:00,47.6,45.7,29.78,West,268,0.7,2.0,93,0.00,SCT,,0.00,0.0,WeatherDisplay:10.37,2013-08-23 08:49:00,
2013-08-23 20:54:00,47.5,45.6,29.77,West,268,0.0,0.0,93,0.00,SCT,,0.00,0.0,WeatherDisplay:10.37,2013-08-23 08:54:00,
2013-08-23 20:59:00,47.3,45.4,29.78,West,268,0.0,0.0,93,0.00,SCT,,0.00,0.0,WeatherDisplay:10.37,2013-08-23 08:59:00,
2013-08-23 21:04:00,47.2,45.6,29.78,West,268,0.0,0.0,94,0.00,SCT,,0.00,0.0,WeatherDisplay:10.37,2013-08-23 09:04:00,
2013-08-23 21:09:00,47.3,45.7,29.78,West,268,0.0,0.0,94,0.00,SCT,,0.00,0.0,WeatherDisplay:10.37,2013-08-23 09:09:00,
2013-08-23 21:14:00,47.1,45.5,29.78,West,268,0.0,0.0,94,0.00,SCT,,0.00,0.0,WeatherDisplay:10.37,2013-08-23 09:14:00,
2013-08-23 21:19:00,47.1,45.5,29.78,West,268,0.0,0.0,94,0.00,SCT,,0.00,0.0,WeatherDisplay:10.37,2013-08-23 09:19:00,
2013-08-23 21:24:00,47.0,45.4,29.78,West,268,0.0,0.0,94,0.00,SCT,,0.00,0.0,WeatherDisplay:10.37,2013-08-23 09:24:00,
2013-08-23 21:29:00,46.9,45.3,29.78,West,268,0.0,0.0,94,0.00,SCT,,0.00,0.0,WeatherDisplay:10.37,2013-08-23 09:29:00,
2013-08-23 21:34:00,46.7,45.1,29.78,West,268,0.0,0.0,94,0.00,SCT,,0.00,0.0,WeatherDisplay:10.37,2013-08-23 09:34:00,
2013-08-23 21:39:00,46.6,45.0,29.78,West,268,0.0,0.0,94,0.00,SCT,,0.00,0.0,WeatherDisplay:10.37,2013-08-23 09:39:00,
2013-08-23 21:44:00,46.7,45.3,29.78,West,268,0.1,1.2,95,0.00,SCT,,0.00,0.0,WeatherDisplay:10.37,2013-08-23 09:44:00,
2013-08-23 21:50:00,46.9,45.5,29.78,West,268,0.0,0.0,95,0.00,SCT,,0.00,0.0,WeatherDisplay:10.37,2013-08-23 09:50:00,
2013-08-23 21:55:00,46.8,45.4,29.79,West,268,0.1,1.2,95,0.00,SCT,,0.00,0.0,WeatherDisplay:10.37,2013-08-23 09:55:00,
2013-08-23 22:00:00,46.5,45.1,29.79,West,268,0.0,0.0,95,0.00,SCT,,0.00,0.0,WeatherDisplay:10.37,2013-08-23 10:00:00,
2013-08-23 22:05:00,46.4,45.0,29.79,West,268,0.0,0.0,95,0.00,SCT,,0.00,0.0,WeatherDisplay:10.37,2013-08-23 10:05:00,
2013-08-23 22:10:00,46.3,44.9,29.79,West,268,0.0,1.2,95,0.00,SCT,,0.00,0.0,WeatherDisplay:10.37,2013-08-23 10:10:00,
2013-08-23 22:15:00,46.3,45.2,29.79,West,268,0.0,0.0,96,0.00,SCT,,0.00,0.0,WeatherDisplay:10.37,2013-08-23 10:15:00,
2013-08-23 22:20:00,46.2,45.1,29.79,West,268,0.0,0.0,96,0.00,SCT,,0.00,0.0,WeatherDisplay:10.37,2013-08-23 10:20:00,
2013-08-23 22:25:00,46.1,45.0,29.79,West,268,0.0,0.0,96,0.00,SCT,,0.00,0.0,WeatherDisplay:10.37,2013-08-23 10:25:00,
2013-08-23 22:30:00,45.9,44.8,29.79,West,268,0.0,0.0,96,0.00,SCT,,0.00,0.0,WeatherDisplay:10.37,2013-08-23 10:30:00,
2013-08-23 22:35:00,45.8,44.7,29.79,West,268,0.1,2.3,96,0.00,SCT,,0.00,0.0,WeatherDisplay:10.37,2013-08-23 10:35:00,
2013-08-23 22:40:00,45.5,44.4,29.79,West,268,0.0,0.0,96,0.00,SCT,,0.00,0.0,WeatherDisplay:10.37,2013-08-23 10:40:00,
2013-08-23 22:45:00,45.4,44.3,29.79,West,268,0.0,0.0,96,0.00,SCT,,0.00,0.0,WeatherDisplay:10.37,2013-08-23 10:45:00,
2013-08-23 22:50:00,45.2,44.1,29.79,West,268,0.0,0.0,96,0.00,SCT,,0.00,0.0,WeatherDisplay:10.37,2013-08-23 10:50:00,
2013-08-23 22:55:00,45.0,43.9,29.79,West,268,0.0,0.0,96,0.00,SCT,,0.00,0.0,WeatherDisplay:10.37,2013-08-23 10:55:00,
2013-08-23 23:00:00,44.8,43.7,29.79,West,268,0.0,0.0,96,0.00,SCT,,0.00,0.0,WeatherDisplay:10.37,2013-08-23 11:00:00,
2013-08-23 23:05:00,44.6,43.5,29.79,West,268,0.0,0.0,96,0.00,SCT,,0.00,0.0,WeatherDisplay:10.37,2013-08-23 11:05:00,
2013-08-23 23:10:00,44.4,43.3,29.79,West,268,0.0,0.0,96,0.00,SCT,,0.00,0.0,WeatherDisplay:10.37,2013-08-23 11:10:00,
2013-08-23 23:15:00,44.3,43.2,29.79,West,268,0.0,0.0,96,0.00,SCT,,0.00,0.0,WeatherDisplay:10.37,2013-08-23 11:15:00,
2013-08-23 23:20:00,44.3,43.5,29.79,West,268,0.0,0.0,97,0.00,SCT,,0.00,0.0,WeatherDisplay:10.37,2013-08-23 11:20:00,
2013-08-23 23:25:00,44.2,43.4,29.79,West,268,0.0,0.0,97,0.00,SCT,,0.00,0.0,WeatherDisplay:10.37,2013-08-23 11:25:00,
2013-08-23 23:30:00,44.1,43.3,29.79,West,268,0.0,0.0,97,0.00,SCT,,0.00,0.0,WeatherDisplay:10.37,2013-08-23 11:30:00,
2013-08-23 23:35:00,44.1,43.3,29.79,West,268,0.0,0.0,97,0.00,SCT,,0.00,0.0,WeatherDisplay:10.37,2013-08-23 11:35:00,
2013-08-23 23:40:00,43.9,43.1,29.79,West,268,0.0,0.0,97,0.00,SCT,,0.00,0.0,WeatherDisplay:10.37,2013-08-23 11:40:00,
2013-08-23 23:45:00,43.7,42.9,29.79,West,268,0.0,0.0,97,0.00,SCT,,0.00,0.0,WeatherDisplay:10.37,2013-08-23 11:45:00,
2013-08-23 23:50:00,43.5,42.7,29.79,West,268,0.0,0.0,97,0.00,SCT,,0.00,0.0,WeatherDisplay:10.37,2013-08-23 11:50:00,
2013-08-23 23:55:00,43.4,42.3,29.79,West,268,0.0,0.0,96,0.00,SCT,,0.00,0.0,WeatherDisplay:10.37,2013-08-23 11:55:00,